Time;durP1;ratioP1;P1;durP2;ratioP2;P2;SDS_P1;SDS_P2;PMS_P1;PMS_P2;Temp;Humidity;BMP_temperature;BMP_pressure;BME280_temperature;BME280_humidity;BME280_pressure;Samples;Min_cycle;Max_cycle;Signal;HPM_P1;HPM_P2
2023/04/03 00:00:29;;;;;;;40.13;25.42;;;256.80;2252.80;;;;;;5035447;28;20057;-87
2023/04/03 00:02:55;;;;;;;35.08;22.58;;;256.80;2252.80;;;;;;5035049;28;20036;-87
2023/04/03 00:05:21;;;;;;;35.30;21.10;;;256.80;2252.80;;;;;;5036450;28;20034;-82
2023/04/03 00:07:47;;;;;;;29.33;17.63;;;256.90;2252.80;;;;;;5035264;28;20381;-84
2023/04/03 00:10:13;;;;;;;35.70;21.40;;;256.80;2252.80;;;;;;5036097;28;20030;-86
2023/04/03 00:12:39;;;;;;;27.77;14.98;;;256.70;2252.80;;;;;;5035204;28;20040;-86
2023/04/03 00:15:05;;;;;;;28.50;15.73;;;256.60;2252.80;;;;;;5035040;28;20025;-89
2023/04/03 00:17:31;;;;;;;28.05;15.60;;;256.60;2252.80;;;;;;5034798;28;20083;-80
2023/04/03 00:19:57;;;;;;;21.67;14.57;;;256.40;2252.80;;;;;;5036422;28;20030;-86
2023/04/03 00:22:22;;;;;;;16.55;11.70;;;231.30;2252.80;;;;;;5035008;28;20036;-82
2023/04/03 00:24:48;;;;;;;24.45;14.68;;;256.00;2252.80;;;;;;5035003;28;20029;-85
2023/04/03 00:27:15;;;;;;;41.25;22.65;;;256.00;2252.80;;;;;;5035067;28;20022;-85
2023/04/03 00:29:41;;;;;;;72.80;36.03;;;256.10;2252.80;;;;;;5034862;28;20063;-85
2023/04/03 00:32:07;;;;;;;60.28;29.52;;;256.40;2252.80;;;;;;5043253;28;20053;-86
2023/04/03 00:34:32;;;;;;;50.70;27.60;;;256.50;2252.80;;;;;;5038148;28;20063;-82
2023/04/03 00:36:58;;;;;;;47.28;24.65;;;256.30;2252.80;;;;;;5038080;28;20022;-85
2023/04/03 00:39:24;;;;;;;33.65;19.30;;;256.20;2252.80;;;;;;5037773;28;20029;-85
2023/04/03 00:41:50;;;;;;;35.47;19.38;;;256.20;2252.80;;;;;;5037866;28;20044;-84
2023/04/03 00:44:21;;;;;;;38.38;24.05;;;256.40;2252.80;;;;;;5037301;28;20166;-83
2023/04/03 00:46:46;;;;;;;32.88;19.90;;;256.40;2252.80;;;;;;5037733;28;20025;-85
2023/04/03 00:49:12;;;;;;;25.15;16.60;;;256.40;2252.80;;;;;;5037466;28;20029;-83
2023/04/03 00:51:38;;;;;;;26.45;16.33;;;256.30;2252.80;;;;;;5037495;28;20024;-88
2023/04/03 00:54:06;;;;;;;19.67;12.25;;;256.00;2252.80;;;;;;5037847;28;20021;-84
2023/04/03 00:56:32;;;;;;;23.65;14.18;;;256.10;2252.80;;;;;;5037584;28;20050;-85
2023/04/03 00:59:36;;;;;;;43.42;26.48;;;230.90;2252.80;;;;;;5035076;28;20029;-85
2023/04/03 01:02:01;;;;;;;;;;;230.90;2252.80;;;;;;4994041;28;20064;-84
2023/04/03 01:04:30;;;;;;;37.75;21.52;;;231.00;2252.80;;;;;;5037275;28;19935;-83
2023/04/03 01:07:01;;;;;;;37.83;23.23;;;231.10;2252.80;;;;;;5037181;28;20021;-86
2023/04/03 01:09:29;;;;;;;48.40;27.60;;;231.00;2252.80;;;;;;5055650;28;20100;-88
2023/04/03 01:12:12;;;;;;;54.03;31.23;;;231.10;2252.80;;;;;;5054542;28;20107;-85
2023/04/03 01:14:37;;;;;;;53.05;31.38;;;231.20;2252.80;;;;;;5037023;28;20064;-84
2023/04/03 01:17:03;;;;;;;49.90;30.38;;;231.10;2252.80;;;;;;5053707;28;20051;-84
2023/04/03 01:19:30;;;;;;;53.38;34.83;;;231.20;2252.80;;;;;;5053787;28;20449;-85
2023/04/03 01:22:17;;;;;;;55.63;35.80;;;231.20;2252.80;;;;;;5054456;28;20029;-87
2023/04/03 01:24:43;;;;;;;70.30;37.90;;;230.90;2252.80;;;;;;5037055;28;20039;-85
2023/04/03 01:27:10;;;;;;;73.30;38.30;;;230.90;2252.80;;;;;;5032905;28;20029;-82
2023/04/03 01:29:36;;;;;;;68.45;37.63;;;231.00;2252.80;;;;;;5016513;28;20026;-81
2023/04/03 01:32:03;;;;;;;60.72;34.72;;;231.00;2252.80;;;;;;5016289;28;20657;-82
2023/04/03 01:34:29;;;;;;;50.75;30.70;;;231.10;2252.80;;;;;;5016900;28;20030;-82
2023/04/03 01:36:55;;;;;;;51.40;29.23;;;230.90;2252.80;;;;;;5017118;28;20029;-83
2023/04/03 01:39:21;;;;;;;72.38;33.78;;;230.90;2252.80;;;;;;5016990;28;20138;-82
2023/04/03 01:41:47;;;;;;;86.57;42.95;;;230.90;2252.80;;;;;;5016588;28;20090;-82
2023/04/03 01:44:13;;;;;;;89.95;45.15;;;231.00;2252.80;;;;;;5016962;28;20112;-85
2023/04/03 01:46:41;;;;;;;81.22;41.47;;;231.00;2252.80;;;;;;5016937;28;20026;-80
2023/04/03 01:49:06;;;;;;;40.58;22.85;;;231.10;2252.80;;;;;;5016507;28;20025;-83
2023/04/03 01:51:33;;;;;;;18.08;11.35;;;231.20;2252.80;;;;;;5017020;28;20381;-81
2023/04/03 01:53:58;;;;;;;31.40;16.65;;;231.00;2252.80;;;;;;5034260;28;20061;-85
2023/04/03 01:56:24;;;;;;;45.67;25.13;;;231.00;2252.80;;;;;;5016706;28;20053;-83
2023/04/03 01:58:50;;;;;;;70.55;42.92;;;231.10;2252.80;;;;;;5034355;28;20033;-88
2023/04/03 02:01:16;;;;;;;62.65;37.40;;;231.10;2252.80;;;;;;5016381;28;20128;-81
2023/04/03 02:03:42;;;;;;;83.43;46.83;;;231.00;2252.80;;;;;;5016502;28;20033;-82
2023/04/03 02:06:08;;;;;;;47.65;27.95;;;231.10;2252.80;;;;;;5016633;28;20124;-83
2023/04/03 02:08:34;;;;;;;39.50;21.67;;;230.70;2252.80;;;;;;5016393;28;20026;-84
2023/04/03 02:10:59;;;;;;;28.55;16.30;;;230.90;2252.80;;;;;;5016596;28;20470;-85
2023/04/03 02:13:25;;;;;;;22.40;15.15;;;231.00;2252.80;;;;;;5033081;28;20036;-84
2023/04/03 02:15:51;;;;;;;20.48;12.70;;;230.90;2252.80;;;;;;5016315;28;20080;-84
2023/04/03 02:18:17;;;;;;;18.35;11.25;;;230.70;2252.80;;;;;;5016534;28;20052;-82
2023/04/03 02:20:43;;;;;;;19.33;10.55;;;230.40;2252.80;;;;;;5016610;28;20026;-85
2023/04/03 02:23:09;;;;;;;16.63;10.45;;;230.60;2252.80;;;;;;5023938;28;20037;-82
2023/04/03 02:25:35;;;;;;;17.70;9.70;;;230.60;2252.80;;;;;;5025674;28;20527;-85
2023/04/03 02:28:01;;;;;;;20.60;11.95;;;230.40;2252.80;;;;;;5016410;28;20062;-83
2023/04/03 02:30:27;;;;;;;22.75;14.05;;;230.40;2252.80;;;;;;5016255;28;20400;-84
2023/04/03 02:32:53;;;;;;;16.52;10.80;;;230.40;2252.80;;;;;;5033993;28;20124;-84
2023/04/03 02:35:18;;;;;;;17.90;10.30;;;205.50;2252.80;;;;;;5033839;28;20410;-85
2023/04/03 02:37:44;;;;;;;14.57;9.63;;;205.30;2252.80;;;;;;5016283;28;20025;-84
2023/04/03 02:40:11;;;;;;;16.27;10.35;;;205.50;2252.80;;;;;;5016003;28;20362;-85
2023/04/03 02:42:37;;;;;;;14.32;10.05;;;205.60;2252.80;;;;;;5016144;28;20025;-84
2023/04/03 02:45:03;;;;;;;33.58;17.65;;;205.60;2252.80;;;;;;5034056;28;20032;-86
2023/04/03 02:47:29;;;;;;;20.05;10.38;;;205.70;2252.80;;;;;;5016077;28;20457;-85
2023/04/03 02:49:55;;;;;;;13.55;8.00;;;205.70;2252.80;;;;;;5021614;28;20074;-84
2023/04/03 02:52:21;;;;;;;7.90;6.28;;;205.70;2252.80;;;;;;5053262;28;20066;-86
2023/04/03 02:54:46;;;;;;;16.15;10.13;;;230.40;2252.80;;;;;;5034883;28;20025;-86
2023/04/03 02:57:12;;;;;;;13.27;8.95;;;230.40;2252.80;;;;;;5035776;28;20362;-85
2023/04/03 02:59:41;;;;;;;14.80;9.73;;;230.50;2252.80;;;;;;5053735;28;20025;-84
2023/04/03 03:02:10;;;;;;;25.17;13.57;;;230.60;2252.80;;;;;;5035553;28;20060;-84
2023/04/03 03:04:36;;;;;;;29.75;17.42;;;230.70;2252.80;;;;;;5035530;28;20060;-87
2023/04/03 03:07:02;;;;;;;33.15;18.95;;;230.70;2252.80;;;;;;5035930;28;20059;-83
2023/04/03 03:09:29;;;;;;;30.73;19.02;;;230.40;2252.80;;;;;;5035690;28;20082;-83
2023/04/03 03:11:55;;;;;;;30.13;17.00;;;230.50;2252.80;;;;;;5053269;28;20021;-85
2023/04/03 03:14:21;;;;;;;22.70;14.75;;;205.60;2252.80;;;;;;5035719;28;20457;-84
2023/04/03 03:16:47;;;;;;;22.92;12.57;;;205.60;2252.80;;;;;;5035568;28;20022;-84
2023/04/03 03:19:12;;;;;;;15.50;11.25;;;205.60;2252.80;;;;;;5035424;28;20064;-84
2023/04/03 03:21:38;;;;;;;18.50;10.23;;;205.50;2252.80;;;;;;5036936;28;20032;-87
2023/04/03 03:24:04;;;;;;;20.90;11.98;;;205.40;2252.80;;;;;;5039326;28;20029;-86
2023/04/03 03:26:30;;;;;;;21.77;12.45;;;205.40;2252.80;;;;;;5039145;28;20548;-83
2023/04/03 03:28:56;;;;;;;19.30;11.50;;;205.50;2252.80;;;;;;5039178;28;20063;-81
2023/04/03 03:31:22;;;;;;;20.00;12.05;;;205.70;2252.80;;;;;;5038962;28;20124;-86
2023/04/03 03:33:47;;;;;;;21.27;12.30;;;205.60;2252.80;;;;;;5039123;28;20029;-81
2023/04/03 03:36:13;;;;;;;18.52;12.45;;;205.70;2252.80;;;;;;5039206;28;20033;-80
2023/04/03 03:38:39;;;;;;;22.30;11.88;;;230.40;2252.80;;;;;;5039190;28;20029;-84
2023/04/03 03:41:05;;;;;;;23.05;12.23;;;230.40;2252.80;;;;;;5038942;28;20025;-83
2023/04/03 03:43:30;;;;;;;21.35;12.82;;;230.40;2252.80;;;;;;5038999;28;20029;-81
2023/04/03 03:45:56;;;;;;;20.17;13.15;;;230.40;2252.80;;;;;;5038889;28;20032;-83
2023/04/03 03:48:23;;;;;;;27.77;14.90;;;230.50;2252.80;;;;;;5038992;28;20052;-81
2023/04/03 03:50:49;;;;;;;26.63;16.10;;;230.50;2252.80;;;;;;5038808;28;20400;-79
2023/04/03 03:53:15;;;;;;;34.80;18.13;;;205.70;2252.80;;;;;;5038466;28;20095;-84
2023/04/03 03:55:42;;;;;;;27.55;18.90;;;205.70;2252.80;;;;;;5056585;28;20535;-83
2023/04/03 03:58:07;;;;;;;33.13;20.63;;;230.40;2252.80;;;;;;5038915;28;20021;-84
2023/04/03 04:00:33;;;;;;;39.00;25.55;;;205.60;2252.80;;;;;;5038468;28;20380;-85
2023/04/03 04:02:59;;;;;;;39.22;24.70;;;205.70;2252.80;;;;;;5038470;28;20453;-84
2023/04/03 04:05:25;;;;;;;36.58;23.13;;;205.70;2252.80;;;;;;5038768;28;20043;-83
2023/04/03 04:07:50;;;;;;;23.40;15.75;;;230.40;2252.80;;;;;;5038334;28;20032;-83
2023/04/03 04:10:16;;;;;;;20.48;13.02;;;205.60;2252.80;;;;;;5038646;28;20109;-80
2023/04/03 04:12:42;;;;;;;18.50;12.48;;;205.70;2252.80;;;;;;5038417;28;20456;-82
2023/04/03 04:15:08;;;;;;;23.77;17.88;;;205.50;2252.80;;;;;;5038131;28;20025;-84
2023/04/03 04:17:35;;;;;;;38.22;31.05;;;205.60;2252.80;;;;;;5038403;28;20021;-82
2023/04/03 04:20:02;;;;;;;31.98;26.17;;;205.60;2252.80;;;;;;5038449;28;20055;-85
2023/04/03 04:22:28;;;;;;;32.45;24.52;;;205.70;2252.80;;;;;;5038113;28;20112;-85
2023/04/03 04:24:53;;;;;;;36.92;23.73;;;205.70;2252.80;;;;;;5038188;28;20068;-84
2023/04/03 04:27:19;;;;;;;42.25;29.17;;;205.50;2252.80;;;;;;5038258;28;20024;-81
2023/04/03 04:29:45;;;;;;;44.97;26.73;;;205.50;2252.80;;;;;;5037899;28;20032;-84
2023/04/03 04:32:11;;;;;;;33.22;21.33;;;205.40;2252.80;;;;;;5037597;28;20155;-85
2023/04/03 04:34:37;;;;;;;28.65;16.70;;;205.00;2252.80;;;;;;5038216;28;20029;-85
2023/04/03 04:37:02;;;;;;;22.80;15.75;;;205.00;2252.80;;;;;;5038003;28;20476;-82
2023/04/03 04:39:28;;;;;;;25.13;14.85;;;180.10;2252.80;;;;;;5038180;28;20024;-86
2023/04/03 04:41:54;;;;;;;19.77;13.70;;;204.90;2252.80;;;;;;5037303;28;20064;-85
2023/04/03 04:44:20;;;;;;;23.42;14.35;;;204.90;2252.80;;;;;;5038219;28;20029;-86
2023/04/03 04:46:46;;;;;;;23.00;13.23;;;205.10;2252.80;;;;;;5037555;28;20021;-83
2023/04/03 04:49:12;;;;;;;22.63;12.88;;;180.10;2252.80;;;;;;5036861;28;20422;-81
2023/04/03 04:51:37;;;;;;;26.27;17.42;;;180.10;2252.80;;;;;;5037550;28;20496;-84
2023/04/03 04:54:03;;;;;;;37.92;24.08;;;180.10;2252.80;;;;;;5037150;28;20037;-82
2023/04/03 04:56:29;;;;;;;47.35;28.63;;;204.90;2252.80;;;;;;5036991;28;20411;-84
2023/04/03 04:58:55;;;;;;;47.03;27.08;;;180.00;2252.80;;;;;;5036963;28;20033;-85
2023/04/03 05:01:21;;;;;;;52.47;31.92;;;180.10;2252.80;;;;;;5037426;28;20040;-82
2023/04/03 05:03:47;;;;;;;56.03;32.70;;;205.00;2252.80;;;;;;5041470;28;20070;-84
2023/04/03 05:06:13;;;;;;;44.78;26.08;;;205.20;2252.80;;;;;;5042283;28;20029;-86
2023/04/03 05:08:39;;;;;;;31.92;20.58;;;204.90;2252.80;;;;;;5037501;28;20017;-83
2023/04/03 05:11:05;;;;;;;27.50;17.55;;;204.80;2252.80;;;;;;5037376;28;20465;-82
2023/04/03 05:13:31;;;;;;;36.08;19.55;;;205.10;2252.80;;;;;;5037333;28;20047;-86
2023/04/03 05:15:56;;;;;;;28.88;19.25;;;205.20;2252.80;;;;;;5037330;28;20078;-83
2023/04/03 05:18:22;;;;;;;38.53;22.00;;;205.50;2252.80;;;;;;5036959;28;20029;-87
2023/04/03 05:20:50;;;;;;;28.90;20.58;;;205.50;2252.80;;;;;;5037294;28;20021;-83
2023/04/03 05:23:16;;;;;;;30.20;21.83;;;205.70;2252.80;;;;;;5055023;28;20037;-82
2023/04/03 05:25:43;;;;;;;31.98;22.83;;;205.70;2252.80;;;;;;5036695;28;20099;-86
2023/04/03 05:28:09;;;;;;;55.28;35.72;;;230.40;2252.80;;;;;;5037048;28;20033;-84
2023/04/03 05:30:35;;;;;;;56.88;37.80;;;230.50;2252.80;;;;;;5037291;28;20124;-82
2023/04/03 05:33:02;;;;;;;56.63;39.42;;;230.60;2252.80;;;;;;5036438;28;20084;-82
2023/04/03 05:35:28;;;;;;;52.85;37.90;;;230.60;2252.80;;;;;;5037193;28;20476;-84
2023/04/03 05:37:54;;;;;;;72.55;47.22;;;230.60;2252.80;;;;;;5036642;28;20044;-83
2023/04/03 05:40:20;;;;;;;65.45;43.17;;;230.60;2252.80;;;;;;5036929;28;20116;-81
2023/04/03 05:42:46;;;;;;;65.95;38.70;;;230.40;2252.80;;;;;;5036785;28;20025;-83
2023/04/03 05:45:11;;;;;;;48.10;30.83;;;230.50;2252.80;;;;;;5046205;28;20044;-83
2023/04/03 05:47:37;;;;;;;43.03;27.55;;;230.50;2252.80;;;;;;5047446;28;20468;-84
2023/04/03 05:50:03;;;;;;;51.92;33.03;;;230.60;2252.80;;;;;;5042065;28;20021;-83
2023/04/03 05:52:40;;;;;;;62.10;38.25;;;230.60;2252.80;;;;;;5036544;28;20028;-84
2023/04/03 05:55:06;;;;;;;55.70;35.00;;;230.50;2252.80;;;;;;5036585;28;20025;-85
2023/04/03 05:57:32;;;;;;;59.95;41.63;;;230.70;2252.80;;;;;;5036146;28;20021;-83
2023/04/03 05:59:58;;;;;;;64.35;42.42;;;230.80;2252.80;;;;;;5035455;28;20384;-86
2023/04/03 06:02:24;;;;;;;56.75;35.25;;;230.90;2252.80;;;;;;5035656;28;20024;-86
2023/04/03 06:04:51;;;;;;;103.20;60.00;;;230.90;2252.80;;;;;;5036172;28;20095;-84
2023/04/03 06:07:20;;;;;;;88.78;51.40;;;230.80;2252.80;;;;;;5035949;28;20029;-86
2023/04/03 06:09:46;;;;;;;56.45;32.90;;;230.90;2252.80;;;;;;5036489;28;20074;-86
2023/04/03 06:12:12;;;;;;;57.70;35.28;;;230.80;2252.80;;;;;;5054501;28;20037;-86
2023/04/03 06:14:38;;;;;;;110.43;63.65;;;230.90;2252.80;;;;;;5053953;28;20095;-88
2023/04/03 06:17:05;;;;;;;128.82;73.97;;;231.00;2252.80;;;;;;5036710;28;20099;-86
2023/04/03 06:19:31;;;;;;;72.45;47.53;;;231.10;2252.80;;;;;;5036582;28;20029;-86
2023/04/03 06:21:57;;;;;;;65.60;45.58;;;231.20;2252.80;;;;;;5036222;28;20080;-86
2023/04/03 06:24:24;;;;;;;62.78;40.97;;;231.20;2252.80;;;;;;5053860;28;20380;-83
2023/04/03 06:26:52;;;;;;;62.30;42.20;;;231.20;2252.80;;;;;;5035415;28;20082;-84
2023/04/03 06:29:21;;;;;;;60.55;40.58;;;231.10;2252.80;;;;;;5035486;28;20033;-88
2023/04/03 06:31:47;;;;;;;74.93;47.08;;;231.20;2252.80;;;;;;5035367;28;20052;-84
2023/04/03 06:34:13;;;;;;;75.10;43.67;;;231.20;2252.80;;;;;;5035579;28;20025;-89
2023/04/03 06:36:39;;;;;;;105.85;72.60;;;231.30;2252.80;;;;;;5036256;28;20070;-86
2023/04/03 06:39:06;;;;;;;106.85;74.68;;;231.20;2252.80;;;;;;5036199;28;20026;-88
2023/04/03 06:41:32;;;;;;;76.03;55.40;;;231.30;2252.80;;;;;;5035811;28;20029;-87
2023/04/03 06:43:58;;;;;;;73.88;50.88;;;256.00;2252.80;;;;;;5036134;28;20033;-86
2023/04/03 06:46:26;;;;;;;76.93;53.33;;;231.30;2252.80;;;;;;5036026;28;20025;-88
2023/04/03 06:48:52;;;;;;;80.53;56.88;;;231.30;2252.80;;;;;;5036053;28;20357;-84
2023/04/03 06:51:27;;;;;;;82.57;57.65;;;231.30;2252.80;;;;;;5051624;28;20377;-87
2023/04/03 06:53:55;;;;;;;85.80;55.83;;;231.30;2252.80;;;;;;5053850;28;20040;-89
2023/04/03 06:56:22;;;;;;;78.85;51.55;;;231.10;2252.80;;;;;;5036298;28;20036;-88
2023/04/03 06:58:48;;;;;;;84.85;59.53;;;231.00;2252.80;;;;;;5039957;28;20025;-86
2023/04/03 07:01:17;;;;;;;57.00;39.90;;;231.20;2252.80;;;;;;5040078;28;20464;-86
2023/04/03 07:03:43;;;;;;;51.97;36.35;;;231.30;2252.80;;;;;;5040291;28;20033;-91
2023/04/03 07:06:11;;;;;;;50.13;34.58;;;231.30;2252.80;;;;;;5057500;28;20433;-88
2023/04/03 07:08:37;;;;;;;54.38;37.40;;;231.30;2252.80;;;;;;5040704;28;20036;-88
2023/04/03 07:11:04;;;;;;;62.13;39.22;;;256.00;2252.80;;;;;;5040707;28;20028;-87
2023/04/03 07:13:30;;;;;;;64.97;43.28;;;231.30;2252.80;;;;;;5040146;28;20036;-88
2023/04/03 07:15:56;;;;;;;58.78;41.50;;;231.30;2252.80;;;;;;5039747;28;20025;-87
2023/04/03 07:18:22;;;;;;;49.58;35.75;;;231.30;2252.80;;;;;;5039883;28;20361;-89
2023/04/03 07:20:48;;;;;;;38.25;28.48;;;231.30;2252.80;;;;;;5039662;28;20027;-87
2023/04/03 07:23:13;;;;;;;41.83;28.38;;;231.10;2252.80;;;;;;5039463;28;20068;-90
2023/04/03 07:25:47;;;;;;;49.50;32.05;;;231.20;2252.80;;;;;;5039818;28;20040;-87
2023/04/03 07:28:13;;;;;;;76.35;53.42;;;231.30;2252.80;;;;;;5039842;28;20028;-88
2023/04/03 07:30:46;;;;;;;53.80;37.92;;;231.30;2252.80;;;;;;5039440;28;20031;-88
2023/04/03 07:33:14;;;;;;;70.88;46.22;;;256.10;2252.80;;;;;;5047213;28;20103;-88
2023/04/03 07:35:41;;;;;;;74.70;55.80;;;256.30;2252.80;;;;;;5033546;28;20045;-87
2023/04/03 07:38:06;;;;;;;57.97;47.03;;;256.20;2252.80;;;;;;5054793;28;20599;-88
2023/04/03 07:40:33;;;;;;;47.05;33.90;;;256.20;2252.80;;;;;;5039630;28;20053;-88
2023/04/03 07:42:59;;;;;;;81.13;52.80;;;231.30;2252.80;;;;;;5039380;28;20036;-86
2023/04/03 07:45:25;;;;;;;64.68;48.50;;;256.40;2252.80;;;;;;5041458;28;20053;-86
2023/04/03 07:47:51;;;;;;;59.92;41.95;;;256.50;2252.80;;;;;;5050041;28;20033;-88
2023/04/03 07:50:18;;;;;;;81.60;52.08;;;256.70;2252.80;;;;;;5042993;28;20509;-88
2023/04/03 07:52:44;;;;;;;68.88;49.13;;;256.80;2252.80;;;;;;5039128;28;20031;-88
2023/04/03 07:55:10;;;;;;;59.67;39.92;;;256.90;2252.80;;;;;;5039123;28;20086;-88
2023/04/03 07:57:36;;;;;;;67.38;42.65;;;281.70;2278.40;;;;;;5053345;28;20048;-85
2023/04/03 08:00:05;;;;;;;78.22;51.15;;;281.80;2278.40;;;;;;5036291;28;20017;-91
2023/04/03 08:02:34;;;;;;;90.05;60.60;;;281.80;2278.40;;;;;;5020983;28;20036;-90
2023/04/03 08:05:00;;;;;;;77.35;53.15;;;281.80;2278.40;;;;;;5035253;28;20040;-86
2023/04/03 08:07:26;;;;;;;58.90;41.95;;;281.90;2278.40;;;;;;5023076;28;20025;-87
2023/04/03 08:09:52;;;;;;;49.95;35.78;;;281.90;2278.40;;;;;;5028957;28;20025;-83
2023/04/03 08:12:18;;;;;;;44.90;31.27;;;281.90;2278.40;;;;;;5018191;28;20048;-85
2023/04/03 08:14:43;;;;;;;48.08;33.70;;;282.00;2278.40;;;;;;5033803;28;20025;-83
2023/04/03 08:17:11;;;;;;;47.95;32.97;;;282.00;2278.40;;;;;;5019221;28;20055;-87
2023/04/03 08:19:38;;;;;;;55.13;37.55;;;282.00;2278.40;;;;;;5027352;28;20021;-89
2023/04/03 08:22:04;;;;;;;45.85;30.98;;;282.20;2278.40;;;;;;5037769;28;20036;-90
2023/04/03 08:24:31;;;;;;;48.40;35.33;;;282.00;2278.40;;;;;;5024636;28;20040;-91
2023/04/03 08:26:57;;;;;;;34.50;25.50;;;282.00;2278.40;;;;;;5052930;28;20387;-89
2023/04/03 08:29:23;;;;;;;37.17;27.30;;;282.00;2278.40;;;;;;5038010;28;20104;-88
2023/04/03 08:31:52;;;;;;;34.90;25.80;;;282.20;2278.40;;;;;;5029743;28;20017;-89
2023/04/03 08:34:18;;;;;;;29.05;21.52;;;282.20;2278.40;;;;;;5018523;28;20029;-90
2023/04/03 08:36:45;;;;;;;33.95;23.33;;;282.20;2278.40;;;;;;5015340;28;20057;-89
2023/04/03 08:39:11;;;;;;;30.30;21.92;;;282.30;2278.40;;;;;;5015607;28;20266;-88
2023/04/03 08:41:42;;;;;;;32.80;24.20;;;282.40;2278.40;;;;;;5015355;28;20053;-92
2023/04/03 08:44:38;;;;;;;33.63;23.92;;;307.20;2304.00;;;;;;5015422;28;20064;-89
2023/04/03 08:47:33;;;;;;;44.85;34.05;;;307.30;2304.00;;;;;;5016541;28;20033;-90
2023/04/03 08:50:05;;;;;;;76.28;59.55;;;307.50;2304.00;;;;;;5014533;28;20033;-83
2023/04/03 08:52:36;;;;;;;41.60;30.25;;;307.60;2304.00;;;;;;5014878;28;20034;-91
2023/04/03 08:55:36;;;;;;;55.05;35.22;;;307.60;2304.00;;;;;;5028576;28;20082;-90
2023/04/03 08:58:05;;;;;;;55.92;37.22;;;307.50;2304.00;;;;;;4999163;28;20038;-89
2023/04/03 09:01:05;;;;;;;37.42;23.75;;;307.50;2304.00;;;;;;5053237;28;20127;-88
2023/04/03 09:03:33;;;;;;;27.02;18.77;;;307.50;2304.00;;;;;;5043599;28;20192;-89
2023/04/03 09:06:06;;;;;;;35.55;22.08;;;307.60;2304.00;;;;;;5042150;28;20085;-89
2023/04/03 09:09:01;;;;;;;26.38;17.13;;;307.60;2304.00;;;;;;5034813;28;20468;-90
2023/04/03 09:11:41;;;;;;;22.70;15.82;;;307.70;2304.00;;;;;;5034929;28;20052;-91
2023/04/03 09:14:48;;;;;;;21.23;13.75;;;307.80;2304.00;;;;;;5041341;28;20036;-90
2023/04/03 09:17:39;;;;;;;21.10;14.15;;;308.00;2304.00;;;;;;5034708;28;20030;-89
2023/04/03 09:20:25;;;;;;;18.70;12.27;;;308.10;2304.00;;;;;;5034114;28;20033;-90
2023/04/03 09:22:53;;;;;;;15.45;10.95;;;332.90;2329.60;;;;;;5034901;28;20035;-89
2023/04/03 09:25:35;;;;;;;15.30;10.45;;;332.90;2329.60;;;;;;5034603;28;20036;-87
2023/04/03 09:28:02;;;;;;;21.07;14.00;;;333.00;2329.60;;;;;;5034562;28;20087;-90
2023/04/03 09:30:28;;;;;;;16.38;11.65;;;333.20;2329.60;;;;;;5033608;28;20502;-87
2023/04/03 09:32:56;;;;;;;14.02;10.23;;;333.30;2329.60;;;;;;5033690;28;20083;-88
2023/04/03 09:35:27;;;;;;;16.55;12.52;;;333.40;2329.60;;;;;;5035020;28;20029;-89
2023/04/03 09:37:59;;;;;;;16.02;11.70;;;333.40;2329.60;;;;;;5034367;28;20080;-92
2023/04/03 09:40:25;;;;;;;16.48;11.52;;;333.40;2329.60;;;;;;5034577;28;20035;-90
2023/04/03 09:42:52;;;;;;;10.57;7.90;;;333.30;2329.60;;;;;;5031241;28;20033;-88
2023/04/03 09:45:28;;;;;;;11.82;8.93;;;333.10;2329.60;;;;;;5014395;28;20037;-90
2023/04/03 09:48:13;;;;;;;10.82;6.70;;;333.10;2329.60;;;;;;5025810;28;20018;-90
2023/04/03 09:51:02;;;;;;;14.45;10.68;;;332.90;2329.60;;;;;;5033684;28;20048;-88
2023/04/03 09:53:38;;;;;;;12.98;10.07;;;332.90;2329.60;;;;;;5034178;28;20033;-92
2023/04/03 09:56:26;;;;;;;15.27;10.68;;;332.90;2329.60;;;;;;5034013;28;20404;-89
2023/04/03 09:59:13;;;;;;;14.98;11.82;;;332.80;2329.60;;;;;;5031005;28;20033;-90
2023/04/03 10:01:43;;;;;;;16.23;12.35;;;308.10;2304.00;;;;;;5024368;28;20038;-89
2023/04/03 10:04:10;;;;;;;22.80;16.48;;;308.10;2304.00;;;;;;5030936;28;20335;-88
2023/04/03 10:06:46;;;;;;;22.48;14.98;;;308.10;2304.00;;;;;;5034691;28;20026;-88
2023/04/03 10:09:20;;;;;;;20.42;14.45;;;308.10;2304.00;;;;;;5027997;28;20026;-88
2023/04/03 10:12:06;;;;;;;19.48;13.23;;;308.10;2304.00;;;;;;5014051;28;20026;-89
2023/04/03 10:14:58;;;;;;;25.02;19.08;;;308.00;2304.00;;;;;;5014908;28;20042;-91
2023/04/03 10:17:51;;;;;;;37.72;26.48;;;307.90;2304.00;;;;;;5014095;28;20026;-89
2023/04/03 10:20:44;;;;;;;44.50;31.40;;;307.80;2304.00;;;;;;5014838;28;20033;-91
2023/04/03 10:23:23;;;;;;;30.67;21.10;;;307.70;2304.00;;;;;;5018371;28;20122;-90
2023/04/03 10:26:11;;;;;;;43.17;28.00;;;307.60;2304.00;;;;;;5034293;28;20143;-91
2023/04/03 10:28:51;;;;;;;35.00;23.08;;;307.40;2304.00;;;;;;5050632;28;20029;-90
2023/04/03 10:31:36;;;;;;;22.23;13.88;;;307.30;2304.00;;;;;;5022141;28;20022;-91
2023/04/03 10:34:15;;;;;;;23.98;15.02;;;307.30;2304.00;;;;;;5025943;28;20025;-90
2023/04/03 10:37:10;;;;;;;16.10;11.13;;;282.40;2278.40;;;;;;5034027;28;20076;-90
2023/04/03 10:40:03;;;;;;;21.67;13.80;;;282.50;2278.40;;;;;;5001802;28;20033;-91
2023/04/03 10:42:58;;;;;;;20.77;13.55;;;282.50;2278.40;;;;;;5022369;28;20140;-91
2023/04/03 10:45:52;;;;;;;15.30;10.27;;;282.50;2278.40;;;;;;5021422;28;20045;-92
2023/04/03 10:48:33;;;;;;;13.35;8.90;;;282.40;2278.40;;;;;;4982439;28;20031;-91
2023/04/03 10:51:06;;;;;;;12.25;7.88;;;282.40;2278.40;;;;;;5036310;28;20028;-91
2023/04/03 10:53:50;;;;;;;13.40;9.40;;;282.40;2278.40;;;;;;5035279;28;20052;-92
2023/04/03 10:56:30;;;;;;;20.85;14.48;;;282.50;2278.40;;;;;;5034874;28;20353;-92
2023/04/03 10:59:30;;;;;;;19.30;11.23;;;282.50;2278.40;;;;;;5038576;28;20401;-91
2023/04/03 11:02:06;;;;;;;20.80;11.32;;;282.50;2278.40;;;;;;5031236;28;20022;-89
2023/04/03 11:04:35;;;;;;;12.60;7.88;;;282.40;2278.40;;;;;;5045287;28;20038;-90
2023/04/03 11:07:10;;;;;;;21.58;11.10;;;282.40;2278.40;;;;;;5049234;28;20029;-90
2023/04/03 11:09:40;;;;;;;41.17;18.92;;;282.40;2278.40;;;;;;5037243;28;20026;-88
2023/04/03 11:12:22;;;;;;;34.78;16.65;;;282.40;2278.40;;;;;;5034350;28;20105;-89
2023/04/03 11:14:51;;;;;;;17.83;11.27;;;282.40;2278.40;;;;;;5062089;28;20098;-90
2023/04/03 11:17:26;;;;;;;17.35;10.40;;;282.30;2278.40;;;;;;5046863;28;20093;-92
2023/04/03 11:20:06;;;;;;;13.70;9.80;;;282.30;2278.40;;;;;;5023071;28;20026;-91
2023/04/03 11:22:38;;;;;;;17.25;11.02;;;282.20;2278.40;;;;;;5013361;28;20045;-90
2023/04/03 11:25:06;;;;;;;15.40;10.07;;;282.20;2278.40;;;;;;5033452;28;20420;-91
2023/04/03 11:27:58;;;;;;;19.13;10.63;;;282.20;2278.40;;;;;;5032996;28;20036;-90
2023/04/03 11:30:42;;;;;;;10.77;7.55;;;282.20;2278.40;;;;;;5033103;28;20120;-91
2023/04/03 11:33:45;;;;;;;13.18;8.10;;;282.00;2278.40;;;;;;5013808;28;20038;-90
2023/04/03 11:36:32;;;;;;;11.30;7.68;;;282.00;2278.40;;;;;;5014929;28;20030;-91
2023/04/03 11:39:15;;;;;;;12.45;7.70;;;282.00;2278.40;;;;;;5035304;28;20075;-90
2023/04/03 11:41:41;;;;;;;13.93;8.27;;;282.00;2278.40;;;;;;5027374;28;20033;-90
2023/04/03 11:44:37;;;;;;;14.45;9.32;;;281.90;2278.40;;;;;;5020119;28;20136;-91
2023/04/03 11:47:07;;;;;;;13.60;8.60;;;281.90;2278.40;;;;;;5019934;28;20079;-91
2023/04/03 11:49:53;;;;;;;15.23;10.00;;;281.90;2278.40;;;;;;5019906;28;20083;-90
2023/04/03 11:52:43;;;;;;;16.13;9.75;;;281.90;2278.40;;;;;;5036068;28;20033;-90
2023/04/03 11:55:32;;;;;;;18.52;12.90;;;282.00;2278.40;;;;;;5036120;28;20030;-91
2023/04/03 11:57:57;;;;;;;16.23;10.85;;;282.00;2278.40;;;;;;5025150;28;20017;-91
2023/04/03 12:00:51;;;;;;;18.38;12.43;;;281.90;2278.40;;;;;;5038417;28;20123;-91
2023/04/03 12:03:23;;;;;;;22.60;14.93;;;281.90;2278.40;;;;;;5020025;28;20034;-92
2023/04/03 12:05:50;;;;;;;30.73;21.77;;;281.80;2278.40;;;;;;5019003;28;20096;-89
2023/04/03 12:08:26;;;;;;;30.17;20.65;;;281.90;2278.40;;;;;;5019273;28;20048;-89
2023/04/03 12:11:12;;;;;;;21.50;14.60;;;281.80;2278.40;;;;;;5066877;28;20360;-90
2023/04/03 12:13:58;;;;;;;28.17;19.60;;;281.90;2278.40;;;;;;5044735;28;20059;-92
2023/04/03 12:16:27;;;;;;;31.70;21.10;;;282.00;2278.40;;;;;;5051966;28;20472;-90